Time;durP1;ratioP1;P1;durP2;ratioP2;P2;SDS_P1;SDS_P2;PMS_P1;PMS_P2;Temp;Humidity;BMP_temperature;BMP_pressure;BME280_temperature;BME280_humidity;BME280_pressure;Samples;Min_cycle;Max_cycle;Signal;HPM_P1;HPM_P2
2022/06/02 00:01:30;;;;;;;4.47;2.67;;;;;;;19.74;nan;93973.00;5016493;28;20197;-90
2022/06/02 00:04:19;;;;;;;2.50;2.30;;;;;;;19.56;nan;93980.84;5028696;28;20553;-89
2022/06/02 00:07:17;;;;;;;2.87;2.57;;;;;;;19.47;nan;93981.88;5018371;28;20258;-93
2022/06/02 00:10:19;;;;;;;4.00;2.67;;;;;;;19.55;nan;93979.38;4999694;28;20203;-94
2022/06/02 00:13:32;;;;;;;3.10;2.80;;;;;;;19.43;nan;93990.25;5014995;28;20226;-89
2022/06/02 00:16:29;;;;;;;3.87;3.10;;;;;;;19.71;nan;93985.66;4999230;28;20266;-90
2022/06/02 00:19:32;;;;;;;3.53;3.17;;;;;;;19.66;nan;93986.91;5007056;28;20226;-91
2022/06/02 00:22:41;;;;;;;2.80;2.50;;;;;;;19.73;nan;93985.75;5006808;28;20230;-92
2022/06/02 00:25:42;;;;;;;2.63;2.43;;;;;;;19.74;nan;93992.91;5007897;28;20246;-92
2022/06/02 00:28:31;;;;;;;2.47;2.27;;;;;;;19.82;nan;93992.47;4993704;28;20225;-91
2022/06/02 00:31:18;;;;;;;4.93;2.40;;;;;;;19.72;nan;93987.13;5020218;28;20215;-94
2022/06/02 00:34:06;;;;;;;3.13;2.23;;;;;;;19.73;nan;93994.28;4983700;28;20210;-92
2022/06/02 00:37:09;;;;;;;2.00;1.80;;;;;;;19.71;nan;94007.69;5003309;28;20298;-90
2022/06/02 00:39:53;;;;;;;2.30;2.10;;;;;;;19.42;nan;94016.47;5021604;28;20681;-93
2022/06/02 00:42:56;;;;;;;2.37;2.07;;;;;;;19.27;nan;94023.66;5009771;28;20193;-92
2022/06/02 00:45:46;;;;;;;3.03;1.77;;;;;;;18.92;nan;94013.75;4993510;28;20211;-90
2022/06/02 00:48:53;;;;;;;2.43;1.90;;;;;;;18.90;nan;94010.09;5006015;28;20350;-87
2022/06/02 00:52:02;;;;;;;2.90;2.13;;;;;;;18.97;nan;94008.97;4978341;28;20258;-89
2022/06/02 00:58:27;;;;;;;2.23;2.00;;;;;;;18.86;nan;94016.34;5027684;28;20246;-91
2022/06/02 01:01:26;;;;;;;2.13;1.97;;;;;;;18.76;nan;94026.53;5014258;28;20335;-90
2022/06/02 01:04:18;;;;;;;2.70;2.50;;;;;;;19.00;nan;94019.03;4997969;28;20257;-90
2022/06/02 01:07:38;;;;;;;5.53;2.33;;;;;;;18.62;nan;94031.59;4986180;28;20223;-90
2022/06/02 01:10:35;;;;;;;3.90;2.07;;;;;;;18.66;nan;94032.50;4985583;28;20387;-90
2022/06/02 01:13:23;;;;;;;3.10;2.20;;;;;;;18.48;nan;94035.25;4981531;28;20421;-93
2022/06/02 01:16:13;;;;;;;4.03;2.50;;;;;;;18.71;nan;94028.44;4979991;28;20207;-93
2022/06/02 01:19:23;;;;;;;2.67;2.30;;;;;;;18.60;nan;94029.41;4996765;28;20230;-93
2022/06/02 01:22:46;;;;;;;4.17;2.20;;;;;;;18.82;nan;94007.66;4982490;28;20254;-92
2022/06/02 01:25:59;;;;;;;2.50;1.90;;;;;;;18.85;nan;93995.00;4982482;28;20199;-90
2022/06/02 01:29:23;;;;;;;2.67;2.20;;;;;;;18.52;nan;93995.69;4981139;28;20210;-91
2022/06/02 01:32:16;;;;;;;2.53;2.33;;;;;;;18.77;nan;94002.44;4994357;28;20688;-91
2022/06/02 01:35:26;;;;;;;3.73;2.33;;;;;;;18.72;nan;94012.88;4996962;28;20218;-91
2022/06/02 01:38:28;;;;;;;3.97;2.50;;;;;;;18.69;nan;94011.34;4982803;28;20206;-90
2022/06/02 01:41:18;;;;;;;3.30;2.57;;;;;;;18.77;nan;93999.59;4998815;28;20206;-89
2022/06/02 01:44:19;;;;;;;4.03;2.80;;;;;;;18.22;nan;94008.56;4982849;28;20211;-90
2022/06/02 01:47:10;;;;;;;3.63;2.73;;;;;;;18.26;nan;94019.38;5000750;28;20703;-89
2022/06/02 01:50:15;;;;;;;3.07;2.80;;;;;;;18.26;nan;94025.03;4987327;28;20295;-90
2022/06/02 01:53:40;;;;;;;3.03;2.43;;;;;;;18.43;nan;94021.53;4997109;28;20204;-92
2022/06/02 01:56:47;;;;;;;3.80;2.80;;;;;;;18.29;nan;94012.41;5001729;28;20207;-91
2022/06/02 01:59:46;;;;;;;4.90;2.27;;;;;;;18.36;nan;94014.13;5008389;28;20221;-88
2022/06/02 02:02:40;;;;;;;2.30;2.10;;;;;;;18.43;nan;94022.28;5011105;28;20206;-91
2022/06/02 02:05:46;;;;;;;3.90;2.03;;;;;;;18.84;nan;94024.75;5007154;28;20207;-91
2022/06/02 02:08:30;;;;;;;2.30;2.10;;;;;;;18.88;nan;94019.28;4999002;28;20230;-91
2022/06/02 02:11:53;;;;;;;2.70;1.80;;;;;;;18.71;nan;94017.09;5014288;28;20577;-91
2022/06/02 02:15:12;;;;;;;3.23;2.00;;;;;;;19.04;nan;94015.63;4998960;28;20210;-91
2022/06/02 02:18:16;;;;;;;2.63;1.67;;;;;;;18.89;nan;94014.28;5000491;28;20268;-92
2022/06/02 02:21:51;;;;;;;2.73;2.10;;;;;;;18.88;nan;94007.19;4996940;28;20268;-92
2022/06/02 02:25:02;;;;;;;3.40;1.90;;;;;;;18.74;nan;94007.31;4957585;28;20269;-92
2022/06/02 02:28:04;;;;;;;2.00;1.73;;;;;;;18.69;nan;94008.50;4984941;28;20226;-92
2022/06/02 02:31:07;;;;;;;4.73;1.90;;;;;;;18.94;nan;94011.00;4985921;28;20262;-92
2022/06/02 02:34:25;;;;;;;1.83;1.63;;;;;;;18.86;nan;94009.94;5009661;28;20246;-92
2022/06/02 02:37:28;;;;;;;4.57;1.97;;;;;;;19.01;nan;94008.41;5013249;28;20191;-91
2022/06/02 02:40:27;;;;;;;2.70;1.70;;;;;;;18.84;nan;94002.03;4983803;28;20214;-91
2022/06/02 02:43:21;;;;;;;3.23;1.70;;;;;;;18.99;nan;94001.28;4997261;28;20257;-91
2022/06/02 02:46:14;;;;;;;3.03;2.13;;;;;;;19.12;nan;94001.75;5010992;28;20207;-92
2022/06/02 02:49:17;;;;;;;2.53;2.00;;;;;;;19.07;nan;94008.66;4997211;28;20755;-92
2022/06/02 02:52:14;;;;;;;3.40;2.47;;;;;;;19.08;nan;94010.09;5012231;28;20257;-91
2022/06/02 02:55:07;;;;;;;2.43;2.23;;;;;;;19.01;nan;94023.31;5011406;28;20206;-91
2022/06/02 02:58:16;;;;;;;3.10;2.60;;;;;;;18.97;nan;94032.41;4998573;28;20199;-90
2022/06/02 03:01:09;;;;;;;2.90;2.63;;;;;;;18.77;nan;94025.88;4996202;28;20273;-90
2022/06/02 03:04:40;;;;;;;3.90;2.73;;;;;;;19.04;nan;94029.81;5008477;28;20203;-91
2022/06/02 03:07:29;;;;;;;3.50;2.70;;;;;;;18.98;nan;94014.00;4998472;28;20262;-90
2022/06/02 03:10:22;;;;;;;3.30;2.50;;;;;;;18.97;nan;94015.38;4993630;28;20279;-91
2022/06/02 03:13:45;;;;;;;3.10;2.50;;;;;;;18.76;nan;94024.41;4998847;28;20694;-90
2022/06/02 03:16:32;;;;;;;2.80;2.60;;;;;;;18.75;nan;94022.97;4952489;28;20207;-91
2022/06/02 03:19:37;;;;;;;2.57;2.37;;;;;;;18.65;nan;94025.34;4972017;28;20232;-90
2022/06/02 03:22:39;;;;;;;3.00;2.80;;;;;;;18.60;nan;94023.72;4998059;28;20588;-91
2022/06/02 03:25:35;;;;;;;3.67;3.20;;;;;;;18.74;nan;94006.56;4993049;28;20616;-90
2022/06/02 03:28:52;;;;;;;3.73;2.60;;;;;;;18.86;nan;94004.97;4997373;28;20539;-90
2022/06/02 03:31:50;;;;;;;2.90;2.63;;;;;;;18.68;nan;94012.72;4981950;28;20247;-90
2022/06/02 03:34:44;;;;;;;4.87;3.27;;;;;;;18.71;nan;94011.44;4998095;28;20234;-90
2022/06/02 03:37:43;;;;;;;4.33;3.43;;;;;;;18.77;nan;94020.19;4992947;28;20195;-90
2022/06/02 03:40:33;;;;;;;3.57;3.27;;;;;;;18.87;nan;94029.16;4996135;28;20314;-90
2022/06/02 03:43:39;;;;;;;8.53;3.73;;;;;;;18.78;nan;94033.03;5003328;28;20593;-91
2022/06/02 03:46:57;;;;;;;7.70;5.17;;;;;;;18.94;nan;94036.56;4998446;28;20542;-90
2022/06/02 03:49:52;;;;;;;5.23;3.83;;;;;;;18.95;nan;94032.31;4981050;28;20208;-91
2022/06/02 03:53:04;;;;;;;5.50;3.97;;;;;;;19.12;nan;94035.84;4997840;28;20219;-91
2022/06/02 03:56:04;;;;;;;8.80;2.97;;;;;;;19.25;nan;94049.91;4988816;28;20329;-90
2022/06/02 03:59:14;;;;;;;3.30;3.00;;;;;;;19.27;nan;94040.72;5010357;28;20238;-91
2022/06/02 04:02:07;;;;;;;4.23;3.30;;;;;;;19.04;nan;94052.53;4997591;28;20223;-91
2022/06/02 04:05:06;;;;;;;3.17;2.90;;;;;;;18.92;nan;94064.13;5001046;28;20207;-90
2022/06/02 04:08:15;;;;;;;4.57;3.50;;;;;;;18.92;nan;94059.19;5010255;28;20718;-91
2022/06/02 04:15:13;;;;;;;5.20;3.03;;;;;;;18.78;nan;94072.75;5020511;28;20202;-89
2022/06/02 04:18:20;;;;;;;7.20;4.03;;;;;;;18.88;nan;94081.00;5011517;28;20241;-89
2022/06/02 04:21:36;;;;;;;5.10;3.50;;;;;;;18.98;nan;94067.22;5008549;28;20198;-91
2022/06/02 04:24:36;;;;;;;7.03;5.70;;;;;;;18.95;nan;94072.06;5010555;28;20289;-89
2022/06/02 04:27:25;;;;;;;4.00;3.17;;;;;;;19.10;nan;94067.00;4995374;28;21063;-90
2022/06/02 04:30:09;;;;;;;3.40;3.20;;;;;;;19.35;nan;94086.53;4998342;28;20206;-90
2022/06/02 04:33:27;;;;;;;3.00;2.70;;;;;;;19.47;nan;94066.41;4992701;28;20622;-91
2022/06/02 04:36:32;;;;;;;6.27;2.50;;;;;;;19.59;nan;94075.44;5008916;28;20203;-92
2022/06/02 04:39:37;;;;;;;3.07;2.63;;;;;;;19.51;nan;94081.50;5000224;28;20679;-91
2022/06/02 04:42:32;;;;;;;3.83;3.47;;;;;;;19.68;nan;94080.81;5013123;28;20198;-92
2022/06/02 04:45:31;;;;;;;5.73;3.37;;;;;;;19.85;nan;94081.44;5007643;28;20679;-92
2022/06/02 04:48:33;;;;;;;3.47;2.83;;;;;;;19.89;nan;94078.75;4996575;28;20238;-90
2022/06/02 04:51:37;;;;;;;3.33;2.90;;;;;;;19.84;nan;94077.13;5013567;28;20229;-91
2022/06/02 04:54:51;;;;;;;3.00;2.50;;;;;;;20.09;nan;94080.25;5015078;28;20242;-91
2022/06/02 04:57:39;;;;;;;3.30;2.47;;;;;;;20.34;nan;94070.56;5013011;28;20199;-90
2022/06/02 05:00:44;;;;;;;2.70;2.50;;;;;;;20.55;nan;94075.59;5010721;28;20257;-92
2022/06/02 05:03:58;;;;;;;2.93;2.60;;;;;;;20.59;nan;94078.59;5010841;28;20290;-92
2022/06/02 05:06:51;;;;;;;4.23;2.37;;;;;;;20.83;nan;94072.31;4994835;28;20262;-92
2022/06/02 05:09:45;;;;;;;2.97;2.67;;;;;;;20.76;nan;94079.19;5011931;28;20208;-92
2022/06/02 05:12:46;;;;;;;2.40;2.20;;;;;;;20.83;nan;94075.16;4982834;28;20358;-92
2022/06/02 05:16:15;;;;;;;3.87;3.00;;;;;;;21.11;nan;94079.00;5008627;28;20226;-92
2022/06/02 05:19:20;;;;;;;3.20;2.50;;;;;;;21.24;nan;94085.88;5012082;28;20821;-90
2022/06/02 05:22:48;;;;;;;3.87;2.77;;;;;;;21.32;nan;94086.16;5016519;28;20242;-90
2022/06/02 05:26:19;;;;;;;4.37;2.60;;;;;;;21.31;nan;94096.09;5015627;28;20214;-90
2022/06/02 05:29:25;;;;;;;5.50;2.60;;;;;;;21.36;nan;94092.72;4974920;28;20223;-91
2022/06/02 05:32:12;;;;;;;2.07;1.87;;;;;;;21.25;nan;94099.47;5015290;28;20506;-91
2022/06/02 05:34:56;;;;;;;3.00;2.40;;;;;;;21.08;nan;94108.81;5019409;28;20249;-92
2022/06/02 05:38:18;;;;;;;3.53;2.60;;;;;;;20.52;nan;94107.50;5016730;28;20283;-92
2022/06/02 05:41:18;;;;;;;5.33;2.50;;;;;;;20.54;nan;94105.47;5022887;28;20268;-92
2022/06/02 05:44:24;;;;;;;4.03;2.40;;;;;;;20.57;nan;94098.44;5013048;28;20211;-92
2022/06/02 05:47:44;;;;;;;5.47;2.20;;;;;;;21.00;nan;94091.44;5013320;28;20235;-92
2022/06/02 05:50:36;;;;;;;2.73;2.30;;;;;;;22.32;nan;94101.50;5013322;28;20210;-92
2022/06/02 05:53:58;;;;;;;6.43;2.70;;;;;;;22.45;nan;94100.47;5013610;28;20273;-92
2022/06/02 05:56:51;;;;;;;3.83;2.30;;;;;;;22.91;nan;94110.41;5012565;28;20199;-92
2022/06/02 05:59:48;;;;;;;4.23;2.97;;;;;;;23.39;nan;94104.56;5006076;28;20246;-93
2022/06/02 06:02:41;;;;;;;5.03;2.90;;;;;;;23.48;nan;94106.25;5007980;28;20206;-93
2022/06/02 06:05:31;;;;;;;4.77;2.60;;;;;;;23.41;nan;94107.44;5004660;28;20242;-92
2022/06/02 06:08:22;;;;;;;3.40;2.07;;;;;;;23.52;nan;94103.47;5027263;28;20788;-91
2022/06/02 06:11:30;;;;;;;5.50;2.30;;;;;;;22.96;nan;94106.25;5014040;28;20234;-93
2022/06/02 06:14:19;;;;;;;5.43;2.20;;;;;;;23.59;nan;94093.66;5013330;28;20339;-93
2022/06/02 06:17:34;;;;;;;2.57;2.33;;;;;;;24.21;nan;94108.03;5011952;28;20206;-94
2022/06/02 06:20:45;;;;;;;5.70;2.80;;;;;;;24.29;nan;94102.50;5033445;28;20249;-91
2022/06/02 06:24:16;;;;;;;5.03;2.80;;;;;;;24.54;nan;94087.31;5011802;28;20198;-94
2022/06/02 06:27:00;;;;;;;3.87;3.10;;;;;;;24.81;nan;94102.22;5009801;28;20218;-92
2022/06/02 06:29:54;;;;;;;3.67;2.77;;;;;;;24.24;nan;94121.00;4990028;28;20339;-93
2022/06/02 06:33:11;;;;;;;5.13;2.87;;;;;;;23.85;nan;94124.31;5013112;28;20712;-93
2022/06/02 06:36:38;;;;;;;4.33;2.87;;;;;;;23.89;nan;94121.56;5013588;28;20226;-93
2022/06/02 06:39:25;;;;;;;5.13;2.70;;;;;;;24.09;nan;94130.63;5005224;28;20246;-93
2022/06/02 06:42:23;;;;;;;4.63;2.57;;;;;;;23.94;nan;94128.84;5013419;28;20210;-93
2022/06/02 06:45:20;;;;;;;4.63;2.60;;;;;;;23.26;nan;94125.66;5012509;28;20211;-93
2022/06/02 06:48:20;;;;;;;2.90;2.57;;;;;;;22.88;nan;94128.91;5008441;28;20241;-92
2022/06/02 06:51:28;;;;;;;2.77;2.57;;;;;;;24.57;nan;94137.50;4996285;28;20234;-92
2022/06/02 06:54:29;;;;;;;2.20;1.93;;;;;;;25.03;nan;94134.22;4999413;28;20226;-92
2022/06/02 06:57:26;;;;;;;4.30;2.30;;;;;;;25.67;nan;94146.25;5010703;28;20203;-92
2022/06/02 07:00:24;;;;;;;2.30;2.00;;;;;;;25.24;nan;94141.81;4998674;28;20739;-93
2022/06/02 07:03:14;;;;;;;6.00;2.70;;;;;;;25.40;nan;94147.13;5000276;28;20214;-93
2022/06/02 07:06:08;;;;;;;4.17;2.27;;;;;;;25.85;nan;94139.38;4984898;28;20261;-92
2022/06/02 07:09:09;;;;;;;3.00;2.22;;;;;;;25.60;nan;94146.81;5008655;28;20711;-91
2022/06/02 07:15:11;;;;;;;2.47;1.80;;;;;;;25.23;nan;94140.38;4995465;28;20211;-92
2022/06/02 07:17:55;;;;;;;5.00;2.00;;;;;;;24.33;nan;94142.69;4983944;28;20206;-91
2022/06/02 07:20:54;;;;;;;2.53;2.05;;;;;;;24.50;nan;94144.50;4998116;28;20310;-92
2022/06/02 07:23:54;;;;;;;2.40;2.20;;;;;;;24.65;nan;94144.84;4998482;28;20680;-93
2022/06/02 07:27:10;;;;;;;2.88;2.40;;;;;;;24.91;nan;94140.44;4990542;28;20199;-92
2022/06/02 07:30:20;;;;;;;3.70;1.85;;;;;;;26.57;nan;94149.19;4999108;28;20682;-93
2022/06/02 07:33:30;;;;;;;2.55;1.98;;;;;;;25.68;nan;94149.81;4991930;28;20643;-93
2022/06/02 07:36:29;;;;;;;5.10;1.92;;;;;;;26.13;nan;94154.94;4985807;28;20570;-92
2022/06/02 07:39:32;;;;;;;3.72;1.83;;;;;;;27.40;nan;94152.47;5007169;28;20286;-93
2022/06/02 07:42:51;;;;;;;2.47;1.75;;;;;;;27.72;nan;94149.22;5019291;28;20202;-91
2022/06/02 07:45:42;;;;;;;3.80;2.28;;;;;;;27.77;nan;94154.31;5004187;28;20203;-93
2022/06/02 07:48:50;;;;;;;3.40;1.67;;;;;;;28.61;nan;94163.72;5003851;28;20226;-93
2022/06/02 07:51:50;;;;;;;3.95;2.22;;;;;;;29.32;nan;94165.59;5004112;28;20235;-92
2022/06/02 07:54:47;;;;;;;4.70;1.80;;;;;;;28.91;nan;94178.38;5033340;28;20223;-93
2022/06/02 07:57:47;;;;;;;2.20;1.63;;;;;;;28.01;nan;94171.13;5027895;28;20226;-91
2022/06/02 08:00:54;;;;;;;2.67;2.10;;;;;;;28.66;nan;94159.41;5014426;28;20186;-91
2022/06/02 08:03:55;;;;;;;2.58;1.67;;;;;;;29.44;nan;94170.00;5004893;28;20202;-91
2022/06/02 08:07:11;;;;;;;3.17;1.85;;;;;;;30.95;nan;94176.00;5034280;28;20270;-90
2022/06/02 08:10:20;;;;;;;1.95;1.38;;;;;;;30.66;nan;94168.81;5032155;28;20223;-92
2022/06/02 08:13:19;;;;;;;1.73;1.48;;;;;;;30.72;nan;94170.97;4990911;28;20238;-94
2022/06/02 08:16:19;;;;;;;3.10;1.85;;;;;;;30.53;nan;94170.25;4982170;28;20572;-91
2022/06/02 08:19:17;;;;;;;3.33;1.70;;;;;;;30.11;nan;94171.66;5012714;28;20567;-92
2022/06/02 08:22:06;;;;;;;5.00;1.88;;;;;;;31.42;nan;94160.69;5012658;28;20202;-93
2022/06/02 08:25:04;;;;;;;2.33;1.35;;;;;;;31.55;nan;94174.38;4983943;28;20288;-91
2022/06/02 08:28:03;;;;;;;1.70;1.48;;;;;;;31.71;nan;94174.38;5011748;28;20299;-92
2022/06/02 08:31:04;;;;;;;1.95;1.65;;;;;;;31.02;nan;94173.09;5008600;28;20313;-92
2022/06/02 08:34:09;;;;;;;1.88;1.70;;;;;;;29.57;nan;94183.75;5013769;28;20865;-93
2022/06/02 08:37:26;;;;;;;3.88;1.60;;;;;;;30.04;nan;94172.38;4997824;28;20268;-92
2022/06/02 08:40:27;;;;;;;2.90;1.63;;;;;;;30.02;nan;94178.88;4984356;28;20202;-91
2022/06/02 08:43:27;;;;;;;1.70;1.60;;;;;;;30.57;nan;94184.72;4991768;28;20302;-92
2022/06/02 08:46:49;;;;;;;1.98;1.77;;;;;;;30.13;nan;94180.31;4983855;28;20198;-90
2022/06/02 08:49:58;;;;;;;3.35;2.03;;;;;;;30.70;nan;94179.66;5009824;28;20570;-93
2022/06/02 08:53:20;;;;;;;1.70;1.60;;;;;;;30.47;nan;94176.75;4992969;28;20215;-93
2022/06/02 08:56:47;;;;;;;2.13;1.63;;;;;;;31.63;nan;94180.19;5003510;28;20684;-92
2022/06/02 08:59:44;;;;;;;2.88;1.67;;;;;;;32.01;nan;94190.88;5017312;28;20318;-92
2022/06/02 09:02:55;;;;;;;3.53;2.10;;;;;;;31.36;nan;94181.69;5015795;28;20706;-92
2022/06/02 09:06:02;;;;;;;2.67;1.65;;;;;;;32.06;nan;94185.75;5016042;28;20241;-93
2022/06/02 09:09:25;;;;;;;2.95;2.05;;;;;;;32.64;nan;94189.75;5015283;28;20280;-92
2022/06/02 09:12:48;;;;;;;4.15;1.58;;;;;;;33.18;nan;94197.25;4945732;29;20261;-92
2022/06/02 09:16:08;;;;;;;4.00;1.80;;;;;;;33.46;nan;94193.31;5018375;28;20234;-93
2022/06/02 09:19:07;;;;;;;1.80;1.60;;;;;;;32.66;nan;94192.59;5009091;28;20195;-92
2022/06/02 09:22:04;;;;;;;3.67;1.88;;;;;;;31.94;nan;94194.53;5008836;28;20254;-92
2022/06/02 09:25:30;;;;;;;3.15;2.05;;;;;;;33.11;nan;94199.47;5014315;28;20210;-93
2022/06/02 09:28:52;;;;;;;4.60;1.90;;;;;;;31.57;nan;94194.66;5017399;28;20277;-93
2022/06/02 09:31:58;;;;;;;4.65;2.28;;;;;;;30.35;nan;94193.38;5012569;28;20253;-90
2022/06/02 09:35:09;;;;;;;4.88;1.77;;;;;;;31.34;nan;94190.41;5011561;28;20279;-92
2022/06/02 09:38:15;;;;;;;2.17;1.75;;;;;;;31.06;nan;94191.19;5028474;28;20210;-91
2022/06/02 09:41:21;;;;;;;3.75;1.70;;;;;;;32.75;nan;94200.53;5015749;28;20194;-91
2022/06/02 09:44:16;;;;;;;7.28;1.67;;;;;;;32.38;nan;94193.56;5017273;28;20217;-88
2022/06/02 09:47:22;;;;;;;2.38;1.63;;;;;;;31.41;nan;94194.75;5014921;28;20278;-91
2022/06/02 09:50:17;;;;;;;2.78;1.77;;;;;;;31.74;nan;94193.16;5016701;28;20719;-91
2022/06/02 09:53:16;;;;;;;2.92;2.40;;;;;;;31.65;nan;94188.88;5016467;28;20250;-93
2022/06/02 09:56:30;;;;;;;3.22;1.80;;;;;;;30.80;nan;94183.25;5020315;28;20245;-93
2022/06/02 09:59:38;;;;;;;3.90;1.60;;;;;;;30.65;nan;94184.72;5003129;28;20275;-93
2022/06/02 10:02:36;;;;;;;1.83;1.50;;;;;;;30.81;nan;94183.97;4999233;28;20190;-92
2022/06/02 10:05:39;;;;;;;1.55;1.45;;;;;;;32.43;nan;94189.88;5004555;28;20268;-93
2022/06/02 10:08:39;;;;;;;1.45;1.13;;;;;;;32.21;nan;94198.75;5026610;28;20570;-91
2022/06/02 10:13:04;;;;;;;5.13;1.50;;;;;;;32.64;nan;94195.53;5009195;28;20207;-92
2022/06/02 10:15:42;;;;;;;4.18;1.10;;;;;;;32.77;nan;94196.91;5011459;28;20226;-92
2022/06/02 10:18:51;;;;;;;2.15;1.42;;;;;;;33.15;nan;94196.53;5014665;28;20206;-90
2022/06/02 10:21:39;;;;;;;2.28;1.08;;;;;;;31.77;nan;94193.16;5019306;28;20227;-92
2022/06/02 10:24:42;;;;;;;1.65;1.10;;;;;;;32.34;nan;94188.50;5003635;28;20235;-92
2022/06/02 10:28:04;;;;;;;1.55;0.95;;;;;;;33.76;nan;94195.19;4998161;28;20222;-92
2022/06/02 10:31:14;;;;;;;1.38;0.90;;;;;;;34.84;nan;94198.03;5003027;28;20608;-93
2022/06/02 10:34:07;;;;;;;1.48;1.00;;;;;;;35.57;nan;94187.97;5013397;28;20595;-91
2022/06/02 10:37:23;;;;;;;1.17;1.08;;;;;;;35.37;nan;94183.25;5013674;28;20198;-91
2022/06/02 10:40:41;;;;;;;4.00;1.35;;;;;;;35.48;nan;94181.59;5012839;28;20215;-91
2022/06/02 10:43:52;;;;;;;1.77;1.02;;;;;;;37.04;nan;94183.97;5010514;28;20202;-89
2022/06/02 10:47:15;;;;;;;2.17;0.90;;;;;;;35.58;nan;94183.59;5026360;28;20207;-92
2022/06/02 10:50:08;;;;;;;1.80;1.13;;;;;;;36.82;nan;94185.25;4994066;28;20207;-92
2022/06/02 10:53:40;;;;;;;1.45;0.60;;;;;;;36.72;nan;94181.88;5011385;28;20261;-92
2022/06/02 10:56:53;;;;;;;1.00;0.77;;;;;;;38.03;nan;94184.22;5007712;28;20557;-91
2022/06/02 10:59:56;;;;;;;2.05;0.80;;;;;;;36.40;nan;94181.13;5011978;28;20250;-91
2022/06/02 11:02:47;;;;;;;2.22;0.82;;;;;;;36.22;nan;94187.41;5011969;28;20199;-93
2022/06/02 11:06:15;;;;;;;1.52;0.80;;;;;;;37.32;nan;94185.47;5004952;28;20232;-91
2022/06/02 11:09:27;;;;;;;4.78;1.20;;;;;;;36.91;nan;94168.22;5013308;28;20687;-93
2022/06/02 11:12:37;;;;;;;2.33;0.80;;;;;;;37.75;nan;94173.34;4998909;28;20303;-92
2022/06/02 11:15:24;;;;;;;2.05;0.95;;;;;;;40.55;nan;94160.97;5007991;28;20218;-93
2022/06/02 11:18:38;;;;;;;1.40;0.75;;;;;;;40.41;nan;94165.91;4997078;28;20233;-92
2022/06/02 11:21:42;;;;;;;0.80;0.80;;;;;;;39.13;nan;94172.03;4998636;28;20207;-93
2022/06/02 11:24:51;;;;;;;1.17;0.80;;;;;;;38.77;nan;94171.72;5007587;28;20214;-91
2022/06/02 11:28:11;;;;;;;2.47;0.80;;;;;;;36.66;nan;94162.31;5007863;28;20242;-92
2022/06/02 11:30:55;;;;;;;0.80;0.80;;;;;;;38.12;nan;94169.38;5008543;28;20663;-91
2022/06/02 11:34:16;;;;;;;3.53;0.98;;;;;;;38.54;nan;94165.16;5012647;28;20228;-92
2022/06/02 11:37:26;;;;;;;2.92;0.93;;;;;;;38.36;nan;94169.34;5016020;28;20367;-92
2022/06/02 11:40:33;;;;;;;2.60;0.77;;;;;;;38.10;nan;94164.28;5007868;28;20257;-92
2022/06/02 11:43:28;;;;;;;2.60;1.00;;;;;;;37.05;nan;94170.81;5002514;28;20269;-92
2022/06/02 11:46:21;;;;;;;2.15;1.08;;;;;;;36.44;nan;94166.44;5024184;28;20195;-92
2022/06/02 11:49:26;;;;;;;1.17;1.00;;;;;;;36.85;nan;94159.63;5012502;28;20214;-91
2022/06/02 11:52:48;;;;;;;3.88;1.00;;;;;;;35.57;nan;94165.38;5010852;28;20250;-93
2022/06/02 11:55:50;;;;;;;1.75;1.15;;;;;;;35.36;nan;94164.34;5013942;28;20195;-92
2022/06/02 11:59:11;;;;;;;2.45;1.70;;;;;;;35.61;nan;94171.09;5003524;28;20202;-93
2022/06/02 12:02:32;;;;;;;2.17;1.40;;;;;;;34.98;nan;94179.59;5012011;28;20239;-89
2022/06/02 12:05:29;;;;;;;2.33;1.45;;;;;;;32.57;nan;94185.44;4999807;28;20370;-91
2022/06/02 12:08:16;;;;;;;2.15;1.45;;;;;;;31.81;nan;94193.88;5006197;28;20242;-92
2022/06/02 12:11:08;;;;;;;2.70;1.52;;;;;;;32.77;nan;94191.84;5010460;28;20959;-93
2022/06/02 12:14:07;;;;;;;6.03;1.65;;;;;;;31.74;nan;94181.56;5003157;28;20206;-93
2022/06/02 12:17:22;;;;;;;2.90;2.25;;;;;;;31.98;nan;94171.31;5011096;28;20211;-92
2022/06/02 12:20:25;;;;;;;3.00;2.30;;;;;;;32.12;nan;94154.53;5012827;28;20246;-92
2022/06/02 12:23:41;;;;;;;2.63;2.15;;;;;;;31.62;nan;94146.88;5014783;28;20643;-90
2022/06/02 12:26:49;;;;;;;3.25;2.15;;;;;;;30.59;nan;94155.78;4991675;28;20199;-91
2022/06/02 12:29:55;;;;;;;2.75;1.98;;;;;;;29.87;nan;94148.47;5011892;28;20211;-90
2022/06/02 12:33:06;;;;;;;2.85;2.30;;;;;;;29.28;nan;94145.38;5011165;28;20195;-91
2022/06/02 12:36:29;;;;;;;5.00;2.10;;;;;;;29.42;nan;94129.56;5021135;28;20202;-91
2022/06/02 12:39:13;;;;;;;3.17;2.50;;;;;;;29.89;nan;94139.78;5000613;28;20215;-90
2022/06/02 12:42:16;;;;;;;2.57;2.20;;;;;;;30.11;nan;94142.03;5025866;28;20206;-90
2022/06/02 12:45:53;;;;;;;2.40;2.20;;;;;;;29.37;nan;94133.88;5018571;28;20236;-90
2022/06/02 12:48:46;;;;;;;3.80;2.03;;;;;;;28.97;nan;94135.13;4989747;28;20235;-90
2022/06/02 12:51:51;;;;;;;2.40;2.00;;;;;;;29.65;nan;94136.84;5035954;28;20268;-91
2022/06/02 12:54:39;;;;;;;2.92;1.80;;;;;;;30.79;nan;94137.69;5001349;28;20222;-90
2022/06/02 12:57:36;;;;;;;2.30;1.40;;;;;;;31.60;nan;94132.38;5012022;28;20727;-90
2022/06/02 13:01:00;;;;;;;1.10;1.05;;;;;;;33.00;nan;94137.16;5020592;28;20288;-90
2022/06/02 13:04:23;;;;;;;2.35;1.10;;;;;;;35.05;nan;94137.22;5024484;28;20218;-94
2022/06/02 13:07:26;;;;;;;1.23;1.15;;;;;;;34.65;nan;94145.16;4994626;28;20246;-92
2022/06/02 13:10:34;;;;;;;2.55;1.30;;;;;;;35.90;nan;94141.41;4991168;28;20199;-92
2022/06/02 13:13:56;;;;;;;1.38;1.15;;;;;;;34.79;nan;94147.88;4993809;28;20258;-92
2022/06/02 13:16:53;;;;;;;2.22;1.15;;;;;;;34.52;nan;94152.66;5002641;28;20239;-91
2022/06/02 13:19:46;;;;;;;1.40;1.25;;;;;;;34.86;nan;94151.41;5009086;28;20219;-93
2022/06/02 13:22:49;;;;;;;2.95;1.40;;;;;;;36.27;nan;94142.03;4991531;28;20258;-91
2022/06/02 13:25:47;;;;;;;1.67;1.52;;;;;;;36.83;nan;94142.16;4996805;28;20202;-93
2022/06/02 13:29:09;;;;;;;3.22;1.23;;;;;;;38.08;nan;94154.88;5004013;28;20211;-93
2022/06/02 13:32:01;;;;;;;2.10;1.20;;;;;;;39.05;nan;94161.28;4993068;28;20242;-92
2022/06/02 13:35:25;;;;;;;3.05;1.27;;;;;;;39.00;nan;94159.28;4987591;28;20625;-92
2022/06/02 13:38:46;;;;;;;4.32;1.60;;;;;;;38.77;nan;94151.19;4994159;28;20210;-92
2022/06/02 13:41:51;;;;;;;3.05;1.40;;;;;;;39.49;nan;94153.19;4994972;28;20341;-92
2022/06/02 13:44:47;;;;;;;2.20;1.40;;;;;;;41.24;nan;94146.38;5003955;28;20262;-88
2022/06/02 13:47:53;;;;;;;2.25;1.40;;;;;;;40.33;nan;94148.59;5015169;28;20593;-90
2022/06/02 13:51:04;;;;;;;2.67;1.27;;;;;;;41.72;nan;94149.47;4995586;28;20273;-88
2022/06/02 13:57:42;;;;;;;2.40;1.40;;;;;;;40.24;nan;94146.78;4999563;28;20227;-91
2022/06/02 14:00:55;;;;;;;3.13;1.33;;;;;;;42.46;nan;94136.50;5009996;28;20234;-91
2022/06/02 14:04:06;;;;;;;3.28;1.40;;;;;;;43.66;nan;94139.38;5008774;28;20203;-91
2022/06/02 14:06:55;;;;;;;2.35;1.27;;;;;;;41.78;nan;94135.19;5038633;28;20565;-91
2022/06/02 14:10:07;;;;;;;4.25;1.30;;;;;;;43.24;nan;94128.25;5018876;28;20194;-92
2022/06/02 14:13:21;;;;;;;1.02;0.95;;;;;;;43.23;nan;94135.66;5007665;28;20717;-93
2022/06/02 14:16:24;;;;;;;2.25;1.20;;;;;;;44.40;nan;94133.91;5026230;28;20201;-92
2022/06/02 14:19:40;;;;;;;2.70;1.30;;;;;;;44.01;nan;94135.31;5015909;28;20221;-92
2022/06/02 14:22:35;;;;;;;2.17;1.00;;;;;;;45.22;nan;94127.78;5030965;28;20669;-90
2022/06/02 14:26:07;;;;;;;2.85;1.27;;;;;;;44.43;nan;94132.28;5016369;28;20364;-89
2022/06/02 14:29:06;;;;;;;2.47;1.13;;;;;;;45.77;nan;94131.81;5009781;28;20240;-89
2022/06/02 14:32:25;;;;;;;1.20;1.00;;;;;;;45.25;nan;94132.00;5010137;28;20258;-91
2022/06/02 14:35:32;;;;;;;1.77;1.20;;;;;;;42.84;nan;94136.84;4972782;28;20206;-90
2022/06/02 14:38:29;;;;;;;1.30;1.00;;;;;;;40.46;nan;94128.25;5029915;28;20256;-92
2022/06/02 14:41:33;;;;;;;1.17;1.02;;;;;;;41.18;nan;94133.38;5030169;28;20613;-90
2022/06/02 14:44:31;;;;;;;2.30;1.60;;;;;;;40.48;nan;94128.19;5018371;28;20627;-92
2022/06/02 14:47:34;;;;;;;5.63;1.33;;;;;;;40.49;nan;94128.91;5013870;28;20244;-90
2022/06/02 14:50:40;;;;;;;4.10;1.17;;;;;;;40.30;nan;94129.63;5015467;28;20702;-89
2022/06/02 14:54:03;;;;;;;2.05;1.15;;;;;;;39.11;nan;94117.09;5013361;28;20217;-91
2022/06/02 14:57:22;;;;;;;3.13;1.45;;;;;;;37.40;nan;94108.53;5029764;28;20206;-92
2022/06/02 15:00:37;;;;;;;3.55;1.42;;;;;;;38.88;nan;94112.78;5031591;28;20214;-90
2022/06/02 15:03:49;;;;;;;3.38;1.30;;;;;;;37.19;nan;94114.22;5017607;28;20211;-89
2022/06/02 15:07:08;;;;;;;2.58;1.13;;;;;;;39.86;nan;94110.78;4981792;28;20309;-89